Time;durP1;ratioP1;P1;durP2;ratioP2;P2;SDS_P1;SDS_P2;PMS_P1;PMS_P2;Temp;Humidity;BMP_temperature;BMP_pressure;BME280_temperature;BME280_humidity;BME280_pressure;Samples;Min_cycle;Max_cycle;Signal;HPM_P1;HPM_P2
2022/05/15 00:02:18;;;;;;;9.23;3.87;;;15.30;99.90;;;;;;5023708;28;20461;-89
2022/05/15 00:04:45;;;;;;;5.27;3.70;;;15.20;99.90;;;;;;5029951;28;20524;-89
2022/05/15 00:07:12;;;;;;;7.37;4.43;;;15.20;99.90;;;;;;5022881;28;20512;-88
2022/05/15 00:09:40;;;;;;;5.63;3.80;;;15.20;99.90;;;;;;5021385;28;20885;-88
2022/05/15 00:12:09;;;;;;;6.00;3.57;;;15.20;99.90;;;;;;5020984;28;20447;-89
2022/05/15 00:14:36;;;;;;;5.50;3.70;;;15.20;99.90;;;;;;5019606;28;20930;-89
2022/05/15 00:17:03;;;;;;;5.83;4.37;;;15.10;99.90;;;;;;5020467;28;20548;-88
2022/05/15 00:19:33;;;;;;;5.80;4.00;;;15.00;99.90;;;;;;5019878;28;20546;-89
2022/05/15 00:22:00;;;;;;;5.13;3.17;;;15.00;99.90;;;;;;5020924;28;20420;-89
2022/05/15 00:24:28;;;;;;;5.30;3.30;;;15.10;99.90;;;;;;5019086;28;20454;-90
2022/05/15 00:26:55;;;;;;;5.67;3.37;;;15.10;99.90;;;;;;5019613;28;20417;-89
2022/05/15 00:29:22;;;;;;;4.90;3.40;;;15.00;99.90;;;;;;5021975;28;20474;-87
2022/05/15 00:31:49;;;;;;;10.60;4.00;;;15.00;99.90;;;;;;5020336;28;20918;-87
2022/05/15 00:34:16;;;;;;;7.47;3.37;;;14.90;99.90;;;;;;5021900;28;20450;-88
2022/05/15 00:36:45;;;;;;;7.23;3.93;;;14.90;99.90;;;;;;5029893;28;20473;-88
2022/05/15 00:39:12;;;;;;;5.20;3.63;;;14.80;99.90;;;;;;5020917;28;20489;-88
2022/05/15 00:41:40;;;;;;;6.20;3.90;;;14.80;99.90;;;;;;5033601;28;20440;-87
2022/05/15 00:44:08;;;;;;;6.83;4.07;;;14.80;99.90;;;;;;5028163;28;20481;-87
2022/05/15 00:46:40;;;;;;;5.80;3.57;;;14.80;99.90;;;;;;5020339;28;20493;-87
2022/05/15 00:49:10;;;;;;;10.53;4.73;;;14.90;99.90;;;;;;5020082;28;20402;-88
2022/05/15 00:51:41;;;;;;;9.67;3.80;;;14.90;99.90;;;;;;5020291;28;20478;-87
2022/05/15 00:54:13;;;;;;;7.60;4.27;;;14.80;99.90;;;;;;5021149;28;20437;-88
2022/05/15 00:56:46;;;;;;;7.63;4.40;;;14.80;99.90;;;;;;5024281;28;20411;-88
2022/05/15 00:59:16;;;;;;;6.70;3.70;;;14.80;99.90;;;;;;5032003;28;20444;-88
2022/05/15 01:01:43;;;;;;;6.10;3.33;;;14.70;99.90;;;;;;5038559;28;20466;-88
2022/05/15 01:04:10;;;;;;;7.77;4.23;;;14.70;99.90;;;;;;5024153;28;20409;-87
2022/05/15 01:06:43;;;;;;;8.27;3.20;;;14.60;99.90;;;;;;5019869;28;20450;-88
2022/05/15 01:09:12;;;;;;;4.97;3.20;;;14.60;99.90;;;;;;5021463;28;20443;-88
2022/05/15 01:11:40;;;;;;;5.57;3.50;;;14.50;99.90;;;;;;5020430;28;20464;-89
2022/05/15 01:14:11;;;;;;;5.73;3.77;;;14.50;99.90;;;;;;5020393;28;20433;-89
2022/05/15 01:16:38;;;;;;;5.87;3.97;;;14.40;99.90;;;;;;5020249;28;20405;-89
2022/05/15 01:19:07;;;;;;;6.00;4.00;;;14.30;99.90;;;;;;5039224;28;20458;-89
2022/05/15 01:21:38;;;;;;;8.90;3.80;;;14.20;99.90;;;;;;5039264;28;20453;-88
2022/05/15 01:24:07;;;;;;;5.17;3.43;;;14.20;99.90;;;;;;5027018;28;20487;-89
2022/05/15 01:26:35;;;;;;;6.40;3.77;;;14.10;99.90;;;;;;5019160;28;20469;-88
2022/05/15 01:29:04;;;;;;;7.40;3.60;;;14.10;99.90;;;;;;5021983;28;20512;-87
2022/05/15 01:31:33;;;;;;;6.03;3.77;;;14.10;99.90;;;;;;5020930;28;20858;-88
2022/05/15 01:34:00;;;;;;;7.90;4.10;;;14.00;99.90;;;;;;5020716;28;20456;-88
2022/05/15 01:36:28;;;;;;;6.37;3.30;;;14.00;99.90;;;;;;5018620;28;20441;-88
2022/05/15 01:38:56;;;;;;;6.50;3.80;;;14.00;99.90;;;;;;5018452;28;20474;-87
2022/05/15 01:41:24;;;;;;;6.37;3.83;;;14.00;99.90;;;;;;5024120;28;20489;-88
2022/05/15 01:43:53;;;;;;;8.10;3.40;;;13.90;99.90;;;;;;5019107;28;20489;-88
2022/05/15 01:46:22;;;;;;;7.13;3.50;;;13.90;99.90;;;;;;5018378;28;20421;-88
2022/05/15 01:48:50;;;;;;;5.97;3.03;;;13.90;99.90;;;;;;5018433;28;20454;-88
2022/05/15 01:51:17;;;;;;;4.97;3.37;;;13.90;99.90;;;;;;5017840;28;20482;-88
2022/05/15 01:53:45;;;;;;;6.80;4.27;;;13.90;99.90;;;;;;5018943;28;20485;-88
2022/05/15 01:56:14;;;;;;;6.13;3.10;;;13.90;99.90;;;;;;5035580;28;20467;-88
2022/05/15 01:58:41;;;;;;;5.57;3.17;;;13.90;99.90;;;;;;5031465;28;20451;-88
2022/05/15 02:01:08;;;;;;;7.77;4.23;;;13.90;99.90;;;;;;5017897;28;20499;-88
2022/05/15 02:03:36;;;;;;;6.87;3.30;;;14.00;99.90;;;;;;5017232;28;20556;-89
2022/05/15 02:06:04;;;;;;;8.03;3.53;;;13.90;99.90;;;;;;5025959;28;20436;-87
2022/05/15 02:08:31;;;;;;;5.63;3.30;;;13.90;99.90;;;;;;5033797;28;20425;-88
2022/05/15 02:10:59;;;;;;;8.00;3.67;;;13.90;99.90;;;;;;5045934;22;20523;-87
2022/05/15 02:13:28;;;;;;;5.73;3.27;;;13.90;99.90;;;;;;5017486;28;20429;-87
2022/05/15 02:15:55;;;;;;;5.90;3.57;;;13.90;99.90;;;;;;5016743;28;20524;-87
2022/05/15 02:18:22;;;;;;;8.87;3.63;;;13.90;99.90;;;;;;5016988;28;20508;-87
2022/05/15 02:20:52;;;;;;;6.60;4.20;;;13.90;99.90;;;;;;5016137;28;20469;-87
2022/05/15 02:23:19;;;;;;;8.23;3.50;;;14.00;99.90;;;;;;5019340;28;20462;-87
2022/05/15 02:25:46;;;;;;;5.93;4.17;;;13.90;99.90;;;;;;5023058;28;20440;-86
2022/05/15 02:28:13;;;;;;;5.43;3.40;;;13.90;99.90;;;;;;5023727;28;20455;-86
2022/05/15 02:30:41;;;;;;;5.60;3.53;;;13.90;99.90;;;;;;5035817;28;20436;-85
2022/05/15 02:33:08;;;;;;;7.60;4.20;;;13.80;99.90;;;;;;5017652;28;20428;-87
2022/05/15 02:35:35;;;;;;;6.40;3.93;;;13.80;99.90;;;;;;5017621;28;20540;-86
2022/05/15 02:38:02;;;;;;;6.87;3.90;;;13.80;99.90;;;;;;5017540;28;20517;-86
2022/05/15 02:40:29;;;;;;;5.07;3.40;;;13.80;99.90;;;;;;5016023;28;20456;-86
2022/05/15 02:42:57;;;;;;;8.63;4.00;;;13.90;99.90;;;;;;5017900;28;20515;-86
2022/05/15 02:45:25;;;;;;;7.23;3.17;;;13.90;99.90;;;;;;5016021;28;20839;-86
2022/05/15 02:47:53;;;;;;;6.57;3.57;;;14.10;99.90;;;;;;5016004;28;20850;-86
2022/05/15 02:53:06;;;;;;;7.70;3.93;;;14.00;99.90;;;;;;5030714;28;20380;-86
2022/05/15 02:55:33;;;;;;;5.10;3.43;;;13.90;99.90;;;;;;5022628;28;20546;-86
2022/05/15 02:58:00;;;;;;;5.53;3.90;;;13.80;99.90;;;;;;5025429;28;20445;-86
2022/05/15 03:00:28;;;;;;;11.40;3.87;;;13.70;99.90;;;;;;5036303;28;20472;-86
2022/05/15 03:02:57;;;;;;;6.70;3.60;;;13.70;99.90;;;;;;5022675;28;20460;-86
2022/05/15 03:05:24;;;;;;;5.93;2.90;;;13.70;99.90;;;;;;5028615;28;20404;-85
2022/05/15 03:07:52;;;;;;;8.97;3.70;;;13.60;99.90;;;;;;5036806;28;20524;-84
2022/05/15 03:10:22;;;;;;;7.50;3.43;;;13.60;99.90;;;;;;5037137;28;20519;-84
2022/05/15 03:12:49;;;;;;;8.47;3.63;;;13.70;99.90;;;;;;5024891;28;20931;-87
2022/05/15 03:15:16;;;;;;;6.30;3.27;;;13.60;99.90;;;;;;5026687;28;20442;-85
2022/05/15 03:17:43;;;;;;;5.23;3.37;;;13.70;99.90;;;;;;5036537;28;20445;-86
2022/05/15 03:20:15;;;;;;;6.00;3.60;;;13.60;99.90;;;;;;5029712;28;20501;-86
2022/05/15 03:22:42;;;;;;;6.20;3.70;;;13.40;99.90;;;;;;5028330;28;20414;-87
2022/05/15 03:25:10;;;;;;;5.70;3.43;;;13.40;99.90;;;;;;5036636;28;20465;-85
2022/05/15 03:27:37;;;;;;;5.13;3.27;;;13.40;99.90;;;;;;5036593;28;20417;-86
2022/05/15 03:30:06;;;;;;;5.07;3.40;;;13.40;99.90;;;;;;5036556;28;20502;-86
2022/05/15 03:32:32;;;;;;;5.97;3.37;;;13.30;99.90;;;;;;5036331;28;20457;-86
2022/05/15 03:34:59;;;;;;;6.60;3.57;;;13.30;99.90;;;;;;5036577;28;20463;-85
2022/05/15 03:37:28;;;;;;;11.20;3.40;;;13.30;99.90;;;;;;5036153;28;20454;-86
2022/05/15 03:39:55;;;;;;;5.07;3.20;;;13.30;99.90;;;;;;5036324;28;20452;-85
2022/05/15 03:42:24;;;;;;;5.10;3.23;;;13.40;99.90;;;;;;5036335;28;20657;-86
2022/05/15 03:44:51;;;;;;;7.20;2.77;;;13.40;99.90;;;;;;5036204;28;20481;-86
2022/05/15 03:47:19;;;;;;;5.30;3.30;;;13.30;99.90;;;;;;5032825;28;20492;-86
2022/05/15 03:49:46;;;;;;;5.80;3.97;;;13.30;99.90;;;;;;5019300;28;20421;-86
2022/05/15 03:52:14;;;;;;;7.40;3.47;;;13.30;99.90;;;;;;5016983;28;20524;-86
2022/05/15 03:54:42;;;;;;;5.17;3.20;;;13.30;99.90;;;;;;5016442;28;20429;-86
2022/05/15 03:57:10;;;;;;;5.13;3.57;;;13.30;99.90;;;;;;5015740;28;20524;-86
2022/05/15 03:59:39;;;;;;;6.80;3.67;;;13.20;99.90;;;;;;5018189;28;20483;-86
2022/05/15 04:02:08;;;;;;;4.90;3.20;;;13.10;99.90;;;;;;5016683;28;20590;-87
2022/05/15 04:04:35;;;;;;;5.77;3.30;;;13.10;99.90;;;;;;5030743;28;20405;-85
2022/05/15 04:07:02;;;;;;;8.87;3.67;;;13.20;99.90;;;;;;5028636;28;20440;-87
2022/05/15 04:09:31;;;;;;;7.33;4.17;;;13.20;99.90;;;;;;5024671;28;20454;-87
2022/05/15 04:11:59;;;;;;;7.00;4.20;;;13.20;99.90;;;;;;5032843;28;20494;-87
2022/05/15 04:14:27;;;;;;;7.07;3.53;;;13.20;99.90;;;;;;5039963;28;20469;-86
2022/05/15 04:16:54;;;;;;;5.90;3.80;;;13.20;99.90;;;;;;5036690;28;20484;-86
2022/05/15 04:19:20;;;;;;;11.23;4.20;;;13.20;99.90;;;;;;5019641;28;20492;-87
2022/05/15 04:21:47;;;;;;;7.00;3.47;;;13.10;99.90;;;;;;5017487;28;20498;-87
2022/05/15 04:24:16;;;;;;;6.87;3.87;;;13.20;99.90;;;;;;5026045;28;20439;-87
2022/05/15 04:26:46;;;;;;;9.03;3.90;;;13.20;99.90;;;;;;5031157;28;20522;-87
2022/05/15 04:29:15;;;;;;;8.70;4.60;;;13.20;99.90;;;;;;5018126;28;20457;-87
2022/05/15 04:31:42;;;;;;;9.20;5.50;;;13.20;99.90;;;;;;5017368;28;21006;-87
2022/05/15 04:34:09;;;;;;;8.00;4.97;;;13.30;99.90;;;;;;5017893;28;20503;-87
2022/05/15 04:36:36;;;;;;;6.63;4.33;;;13.30;99.90;;;;;;5017986;28;20414;-86
2022/05/15 04:39:04;;;;;;;6.90;4.10;;;13.30;99.90;;;;;;5024547;28;20444;-87
2022/05/15 04:41:31;;;;;;;6.13;3.70;;;13.30;99.90;;;;;;5017518;28;20470;-87
2022/05/15 04:43:59;;;;;;;6.73;3.93;;;13.40;99.90;;;;;;5017325;28;20941;-87
2022/05/15 04:46:29;;;;;;;6.57;3.27;;;13.50;99.90;;;;;;5017074;28;20435;-87
2022/05/15 04:48:56;;;;;;;4.80;2.90;;;13.50;99.90;;;;;;5017284;28;20442;-86
2022/05/15 04:51:23;;;;;;;5.57;3.70;;;13.60;99.90;;;;;;5017762;28;20503;-87
2022/05/15 04:53:50;;;;;;;4.93;3.53;;;13.60;99.90;;;;;;5018457;28;20533;-86
2022/05/15 04:56:17;;;;;;;7.53;3.60;;;13.60;99.90;;;;;;5018476;28;20921;-86
2022/05/15 04:58:44;;;;;;;9.17;3.60;;;13.60;99.90;;;;;;5021808;28;20438;-86
2022/05/15 05:01:10;;;;;;;5.87;3.60;;;13.60;99.90;;;;;;5036118;28;20490;-85
2022/05/15 05:03:39;;;;;;;7.13;3.80;;;13.70;99.90;;;;;;5031879;28;20467;-86
2022/05/15 05:06:08;;;;;;;4.97;3.07;;;13.70;99.90;;;;;;5018986;28;20465;-86
2022/05/15 05:08:35;;;;;;;5.33;3.27;;;13.80;99.90;;;;;;5027778;28;20448;-85
2022/05/15 05:11:02;;;;;;;4.77;3.00;;;13.80;99.90;;;;;;5038898;28;20471;-85
2022/05/15 05:13:28;;;;;;;6.27;3.60;;;13.90;99.90;;;;;;5038686;28;20409;-85
2022/05/15 05:15:56;;;;;;;5.83;3.20;;;13.90;99.90;;;;;;5027332;28;20464;-86
2022/05/15 05:18:22;;;;;;;5.70;3.03;;;14.00;99.90;;;;;;5020015;28;20412;-85
2022/05/15 05:20:51;;;;;;;5.50;3.33;;;14.10;99.90;;;;;;5029425;28;20482;-86
2022/05/15 05:23:17;;;;;;;6.37;2.97;;;14.10;99.90;;;;;;5022853;28;20534;-86
2022/05/15 05:25:44;;;;;;;4.90;3.00;;;14.20;99.90;;;;;;5016717;28;20563;-86
2022/05/15 05:28:11;;;;;;;5.53;2.97;;;14.30;99.90;;;;;;5016225;28;20448;-86
2022/05/15 05:30:39;;;;;;;5.50;3.20;;;14.40;99.90;;;;;;5016681;28;20503;-86
2022/05/15 05:33:06;;;;;;;5.73;2.90;;;14.40;99.90;;;;;;5020914;28;20439;-87
2022/05/15 05:35:33;;;;;;;7.73;2.97;;;14.40;99.90;;;;;;5016287;28;20537;-87
2022/05/15 05:38:02;;;;;;;4.50;3.07;;;14.50;99.90;;;;;;5016044;28;21021;-86
2022/05/15 05:40:29;;;;;;;7.00;3.20;;;14.60;99.90;;;;;;5023349;28;20430;-85
2022/05/15 05:42:56;;;;;;;7.30;3.23;;;14.70;99.90;;;;;;5026707;28;20421;-86
2022/05/15 05:45:23;;;;;;;5.57;3.07;;;14.70;99.90;;;;;;5018330;28;20446;-86
2022/05/15 05:47:50;;;;;;;5.30;2.80;;;14.80;99.90;;;;;;5016469;28;20863;-87
2022/05/15 05:50:19;;;;;;;5.00;2.87;;;14.90;99.90;;;;;;5015289;28;20453;-87
2022/05/15 05:52:46;;;;;;;5.33;3.40;;;15.00;99.90;;;;;;5015863;28;20453;-86
2022/05/15 05:55:16;;;;;;;7.57;4.80;;;15.00;99.90;;;;;;5015700;28;20504;-87
2022/05/15 05:57:44;;;;;;;5.17;3.13;;;15.10;99.90;;;;;;5036880;28;20427;-86
2022/05/15 06:00:14;;;;;;;5.60;3.57;;;15.20;99.90;;;;;;5018336;28;20455;-86
2022/05/15 06:02:41;;;;;;;7.00;3.87;;;15.40;99.90;;;;;;5032257;28;20474;-86
2022/05/15 06:05:08;;;;;;;5.20;3.47;;;15.50;99.90;;;;;;5031902;28;20418;-86
2022/05/15 06:07:35;;;;;;;5.50;3.47;;;15.60;99.90;;;;;;5026426;28;21043;-86
2022/05/15 06:10:03;;;;;;;5.90;3.60;;;15.70;99.90;;;;;;5017160;28;20558;-87
2022/05/15 06:12:31;;;;;;;8.23;3.47;;;15.80;99.90;;;;;;5015646;28;20537;-86
2022/05/15 06:14:58;;;;;;;6.10;3.80;;;15.90;99.90;;;;;;5016500;28;20537;-87
2022/05/15 06:17:27;;;;;;;7.53;3.87;;;15.90;99.90;;;;;;5018196;28;20461;-86
2022/05/15 06:19:54;;;;;;;9.00;3.90;;;16.00;99.90;;;;;;5023684;28;20474;-86
2022/05/15 06:22:21;;;;;;;13.40;3.67;;;16.10;99.90;;;;;;5019898;28;20492;-87
2022/05/15 06:24:48;;;;;;;6.70;4.20;;;16.20;99.90;;;;;;5016151;28;20497;-87
2022/05/15 06:27:15;;;;;;;5.60;2.97;;;16.30;99.90;;;;;;5016838;28;20465;-87
2022/05/15 06:29:43;;;;;;;6.50;3.90;;;16.50;99.90;;;;;;5016725;28;20435;-86
2022/05/15 06:32:10;;;;;;;6.20;4.70;;;16.60;99.90;;;;;;5016583;28;20505;-86
2022/05/15 06:34:38;;;;;;;5.93;3.70;;;16.60;99.90;;;;;;5016564;28;20435;-86
2022/05/15 06:37:05;;;;;;;6.10;3.87;;;16.80;99.90;;;;;;5022312;28;20782;-87
2022/05/15 06:39:32;;;;;;;6.70;4.30;;;17.00;99.90;;;;;;5018872;28;20825;-87
2022/05/15 06:42:00;;;;;;;7.63;4.63;;;17.00;99.90;;;;;;5019550;28;20486;-87
2022/05/15 06:44:27;;;;;;;8.37;4.80;;;17.10;99.90;;;;;;5022488;28;20512;-87
2022/05/15 06:46:56;;;;;;;7.57;4.37;;;17.20;99.90;;;;;;5023007;28;20512;-87
2022/05/15 06:49:27;;;;;;;9.03;4.50;;;17.40;99.90;;;;;;5023989;28;20481;-87
2022/05/15 06:51:53;;;;;;;8.90;4.67;;;17.40;99.90;;;;;;5024435;28;20962;-87
2022/05/15 06:54:21;;;;;;;8.30;5.57;;;17.30;99.90;;;;;;5029213;28;20438;-87
2022/05/15 06:59:38;;;;;;;6.60;5.03;;;17.40;99.90;;;;;;5021079;28;20421;-86
2022/05/15 07:02:07;;;;;;;7.77;4.90;;;17.40;99.90;;;;;;5026956;28;20512;-86
2022/05/15 07:04:34;;;;;;;8.67;5.30;;;17.50;99.90;;;;;;5027751;28;20505;-87
2022/05/15 07:07:00;;;;;;;7.00;4.80;;;17.60;99.90;;;;;;5023553;28;20476;-87
2022/05/15 07:09:30;;;;;;;7.03;5.07;;;17.60;99.90;;;;;;5022371;28;20478;-86
2022/05/15 07:12:07;;;;;;;17.70;4.80;;;17.60;99.90;;;;;;5034901;28;20474;-87
2022/05/15 07:14:36;;;;;;;7.87;4.70;;;17.70;99.90;;;;;;5031054;28;20434;-86
2022/05/15 07:17:06;;;;;;;6.53;4.50;;;17.70;99.90;;;;;;5033390;28;20455;-86
2022/05/15 07:19:35;;;;;;;8.53;4.97;;;17.70;99.90;;;;;;5026944;28;20474;-87
2022/05/15 07:22:01;;;;;;;7.73;4.60;;;17.80;99.90;;;;;;5019597;28;20552;-87
2022/05/15 07:24:28;;;;;;;6.20;4.80;;;17.80;99.90;;;;;;5017307;28;20481;-87
2022/05/15 07:26:55;;;;;;;7.00;4.00;;;17.90;99.90;;;;;;5017322;28;20516;-87
2022/05/15 07:29:24;;;;;;;6.17;4.40;;;18.00;99.90;;;;;;5036628;28;20470;-86
2022/05/15 07:31:52;;;;;;;8.40;4.20;;;18.10;99.90;;;;;;5022420;28;20489;-86
2022/05/15 07:34:19;;;;;;;6.60;3.80;;;18.10;99.90;;;;;;5018054;28;20410;-87
2022/05/15 07:36:53;;;;;;;7.00;3.77;;;18.30;99.90;;;;;;5018430;28;20906;-87
2022/05/15 07:39:33;;;;;;;7.33;3.77;;;18.40;99.90;;;;;;5023854;28;20517;-87
2022/05/15 07:42:00;;;;;;;7.73;4.10;;;18.60;99.90;;;;;;5023004;28;20504;-87
2022/05/15 07:44:27;;;;;;;8.50;4.93;;;18.90;99.90;;;;;;5023011;28;20438;-87
2022/05/15 07:46:57;;;;;;;6.77;4.17;;;18.90;99.90;;;;;;5024413;28;20477;-87
2022/05/15 07:49:27;;;;;;;7.30;3.60;;;18.90;99.90;;;;;;5026941;28;20446;-87
2022/05/15 07:51:58;;;;;;;5.67;3.80;;;18.90;99.90;;;;;;5020179;28;20474;-87
2022/05/15 07:54:29;;;;;;;7.50;3.70;;;19.10;99.90;;;;;;5025178;28;20454;-87
2022/05/15 07:57:01;;;;;;;8.10;3.70;;;19.10;99.90;;;;;;5025122;28;20481;-87
2022/05/15 07:59:29;;;;;;;7.93;3.80;;;19.20;99.90;;;;;;5021096;28;20434;-87
2022/05/15 08:01:58;;;;;;;7.13;4.13;;;19.30;99.90;;;;;;5023705;28;20585;-87
2022/05/15 08:04:25;;;;;;;6.50;3.83;;;19.50;99.90;;;;;;5024303;28;20484;-87
2022/05/15 08:09:37;;;;;;;7.97;3.53;;;19.60;98.80;;;;;;5019559;28;20385;-87
2022/05/15 08:14:35;;;;;;;6.17;3.37;;;19.70;98.40;;;;;;5046495;22;20917;-88
2022/05/15 08:17:02;;;;;;;6.43;3.33;;;19.60;98.10;;;;;;5025326;28;20516;-88
2022/05/15 08:24:59;;;;;;;7.80;3.30;;;19.80;97.50;;;;;;5025814;28;20418;-88
2022/05/15 08:27:27;;;;;;;9.70;3.50;;;19.90;97.30;;;;;;5026783;28;20434;-88
2022/05/15 08:29:54;;;;;;;6.13;3.47;;;20.10;97.20;;;;;;5023253;28;20788;-88
2022/05/15 08:32:21;;;;;;;8.47;3.10;;;20.30;96.60;;;;;;5028956;28;20492;-87
2022/05/15 08:34:51;;;;;;;6.00;2.97;;;20.40;96.20;;;;;;5038318;28;20481;-88
2022/05/15 08:37:18;;;;;;;4.50;2.87;;;20.60;96.00;;;;;;5029897;28;20486;-87
2022/05/15 08:39:45;;;;;;;5.20;3.00;;;20.60;95.50;;;;;;5029926;28;20502;-87
2022/05/15 08:42:22;;;;;;;6.80;2.80;;;20.70;95.70;;;;;;5035934;28;20525;-88
2022/05/15 08:44:54;;;;;;;5.07;2.70;;;20.80;95.50;;;;;;5026124;28;20497;-88
2022/05/15 08:47:32;;;;;;;5.90;3.00;;;20.90;95.10;;;;;;5021401;28;20407;-88
2022/05/15 08:50:02;;;;;;;6.27;3.30;;;21.00;95.10;;;;;;5020729;28;20454;-88
2022/05/15 08:52:37;;;;;;;5.90;2.80;;;21.00;95.00;;;;;;5021767;28;20451;-88
2022/05/15 08:55:08;;;;;;;10.50;3.70;;;21.00;94.80;;;;;;5026160;28;20442;-88
2022/05/15 08:57:42;;;;;;;6.17;3.00;;;21.00;94.70;;;;;;5027335;28;20470;-88
2022/05/15 09:00:12;;;;;;;7.17;3.17;;;21.10;94.80;;;;;;5027113;28;20549;-87
2022/05/15 09:02:41;;;;;;;5.13;2.83;;;21.30;94.50;;;;;;5026880;28;20870;-87
2022/05/15 09:05:09;;;;;;;5.73;3.40;;;21.40;94.10;;;;;;5027974;28;20446;-87
2022/05/15 09:07:51;;;;;;;6.50;3.50;;;21.50;94.10;;;;;;5025225;28;20505;-88
2022/05/15 09:10:32;;;;;;;6.07;3.60;;;21.70;94.30;;;;;;5021781;28;20442;-88
2022/05/15 09:13:11;;;;;;;6.03;2.80;;;21.80;93.40;;;;;;5021649;28;20862;-91
2022/05/15 09:15:46;;;;;;;7.13;3.10;;;21.90;93.30;;;;;;5022264;28;20454;-90
2022/05/15 09:18:18;;;;;;;7.00;3.57;;;21.90;92.90;;;;;;5028273;28;20453;-90
2022/05/15 09:20:59;;;;;;;5.73;3.17;;;22.00;93.20;;;;;;5025601;28;20444;-90
2022/05/15 09:23:34;;;;;;;5.60;3.67;;;22.20;93.10;;;;;;5026507;28;20540;-90
2022/05/15 09:26:11;;;;;;;6.87;3.33;;;22.30;92.80;;;;;;5026017;28;20462;-88
2022/05/15 09:28:43;;;;;;;5.63;3.00;;;22.40;92.20;;;;;;5034207;28;20458;-89
2022/05/15 09:31:23;;;;;;;5.50;3.03;;;22.60;91.50;;;;;;5037620;28;20439;-89
2022/05/15 09:33:55;;;;;;;5.20;2.60;;;22.70;90.50;;;;;;5031065;28;20462;-88
2022/05/15 09:36:26;;;;;;;5.40;3.17;;;22.80;90.60;;;;;;5023868;28;20442;-89
2022/05/15 09:39:24;;;;;;;8.90;3.50;;;22.80;90.50;;;;;;5021848;28;20474;-89
2022/05/15 09:44:47;;;;;;;5.43;2.50;;;22.90;90.30;;;;;;5019733;28;20438;-89
2022/05/15 09:47:26;;;;;;;7.30;3.10;;;23.10;89.80;;;;;;5019838;28;20458;-89
2022/05/15 09:49:53;;;;;;;5.40;2.93;;;23.30;89.20;;;;;;5020137;28;20434;-90
2022/05/15 09:52:28;;;;;;;5.60;3.17;;;23.40;87.60;;;;;;5020268;28;20450;-89
2022/05/15 09:55:08;;;;;;;6.57;3.40;;;23.40;86.80;;;;;;5018142;28;20496;-89
2022/05/15 09:57:36;;;;;;;5.43;3.37;;;23.40;87.10;;;;;;5017152;28;20557;-89
2022/05/15 10:00:10;;;;;;;4.77;2.90;;;23.50;86.10;;;;;;5016985;28;20511;-90
2022/05/15 10:02:42;;;;;;;4.00;2.93;;;23.60;85.60;;;;;;5021441;28;20821;-90
2022/05/15 10:05:17;;;;;;;5.40;3.20;;;23.70;84.60;;;;;;5019366;28;20443;-90
2022/05/15 10:07:58;;;;;;;4.57;3.03;;;23.80;84.90;;;;;;5029338;28;20622;-90
2022/05/15 10:10:29;;;;;;;6.93;3.47;;;23.90;85.10;;;;;;5029761;28;20429;-90
2022/05/15 10:13:04;;;;;;;5.80;3.37;;;23.90;84.30;;;;;;5028142;28;20501;-89
2022/05/15 10:15:40;;;;;;;5.30;3.20;;;23.90;84.10;;;;;;5023448;28;20450;-89
2022/05/15 10:18:11;;;;;;;5.70;2.83;;;23.90;84.10;;;;;;5019779;28;20442;-89
2022/05/15 10:20:45;;;;;;;6.07;3.30;;;23.90;84.10;;;;;;5020653;28;20450;-90
2022/05/15 10:23:15;;;;;;;5.27;2.90;;;23.90;83.30;;;;;;5385414;22;21639;-89
2022/05/15 10:25:50;;;;;;;6.37;3.33;;;24.10;83.40;;;;;;5019660;28;20439;-89
2022/05/15 10:28:30;;;;;;;5.77;3.00;;;24.10;83.60;;;;;;5018206;28;20461;-89
2022/05/15 10:31:04;;;;;;;6.20;3.23;;;24.30;83.00;;;;;;5019837;28;20849;-89
2022/05/15 10:33:38;;;;;;;5.70;3.20;;;24.30;82.60;;;;;;5018692;28;21034;-89
2022/05/15 10:36:15;;;;;;;4.90;2.90;;;24.30;81.50;;;;;;5017743;28;20955;-90
2022/05/15 10:38:55;;;;;;;5.50;3.20;;;24.30;77.70;;;;;;5019803;28;20526;-90
2022/05/15 10:41:30;;;;;;;6.10;3.17;;;24.30;78.70;;;;;;5029904;28;20880;-88
2022/05/15 10:44:12;;;;;;;5.13;2.73;;;24.30;78.80;;;;;;5020476;28;20497;-90
2022/05/15 10:46:53;;;;;;;5.00;2.67;;;24.30;78.70;;;;;;5020914;28;20434;-90
2022/05/15 10:49:36;;;;;;;7.00;3.23;;;24.30;78.50;;;;;;5019054;28;20407;-90
2022/05/15 10:52:11;;;;;;;4.87;2.60;;;24.30;78.10;;;;;;5024184;28;20465;-90
2022/05/15 10:57:44;;;;;;;5.63;2.80;;;24.50;76.60;;;;;;5021437;28;20466;-89
2022/05/15 11:00:19;;;;;;;5.13;3.07;;;24.60;76.00;;;;;;5019321;28;20446;-90
2022/05/15 11:03:19;;;;;;;7.30;3.27;;;24.60;74.50;;;;;;5017676;28;20493;-89
2022/05/15 11:06:10;;;;;;;6.47;3.00;;;24.80;73.70;;;;;;5017954;28;20454;-90
2022/05/15 11:08:45;;;;;;;6.90;3.00;;;24.80;71.80;;;;;;5017358;28;20415;-88
2022/05/15 11:11:37;;;;;;;4.40;2.63;;;24.90;69.50;;;;;;5017420;28;20434;-88
2022/05/15 11:14:13;;;;;;;4.63;2.90;;;24.80;69.20;;;;;;5033953;28;20454;-88
2022/05/15 11:16:46;;;;;;;7.37;2.97;;;24.80;69.90;;;;;;5021433;28;20430;-90
2022/05/15 11:19:27;;;;;;;5.93;2.80;;;24.90;70.50;;;;;;5016764;28;20469;-89
2022/05/15 11:22:02;;;;;;;5.10;2.80;;;24.90;70.30;;;;;;5018314;28;20461;-89
2022/05/15 11:24:43;;;;;;;4.30;2.80;;;24.90;70.90;;;;;;5017581;28;20481;-89
2022/05/15 11:27:17;;;;;;;4.90;2.80;;;24.90;70.00;;;;;;5017730;28;20558;-89
2022/05/15 11:29:49;;;;;;;4.47;2.77;;;25.10;69.40;;;;;;5018919;28;20458;-89
2022/05/15 11:32:42;;;;;;;5.53;2.50;;;24.90;69.20;;;;;;5027157;28;20434;-88
2022/05/15 11:35:27;;;;;;;7.60;2.90;;;25.00;69.20;;;;;;5020880;28;20447;-89
2022/05/15 11:38:07;;;;;;;4.80;2.87;;;24.90;67.90;;;;;;5029259;28;20458;-89
2022/05/15 11:40:37;;;;;;;4.53;2.80;;;25.00;67.40;;;;;;5027223;28;20546;-89
2022/05/15 11:43:42;;;;;;;5.70;2.50;;;24.90;68.20;;;;;;5031282;28;20501;-88
2022/05/15 11:46:11;;;;;;;4.47;2.87;;;24.90;68.20;;;;;;5036409;28;20438;-88
2022/05/15 11:48:59;;;;;;;7.67;2.60;;;25.00;68.00;;;;;;5037622;28;20510;-89
2022/05/15 11:51:29;;;;;;;5.40;3.70;;;25.00;67.30;;;;;;5027277;28;20454;-90
2022/05/15 11:54:01;;;;;;;4.77;2.93;;;25.20;67.00;;;;;;5016585;28;20474;-90
2022/05/15 11:56:37;;;;;;;4.83;3.10;;;25.20;66.40;;;;;;5017755;28;20438;-90
2022/05/15 11:59:08;;;;;;;6.50;3.00;;;25.30;65.70;;;;;;5017668;28;20458;-89
2022/05/15 12:01:49;;;;;;;4.10;2.60;;;25.30;64.40;;;;;;5022411;28;20449;-88
2022/05/15 12:05:00;;;;;;;4.93;2.60;;;25.30;64.90;;;;;;5017777;28;20655;-90
2022/05/15 12:07:49;;;;;;;10.10;3.30;;;25.30;64.90;;;;;;5016710;28;20435;-90
2022/05/15 12:10:38;;;;;;;5.10;2.73;;;25.60;64.90;;;;;;5016366;28;20504;-90
2022/05/15 12:13:10;;;;;;;8.17;3.83;;;25.50;63.10;;;;;;5019178;28;20502;-89
2022/05/15 12:15:43;;;;;;;4.73;2.90;;;25.40;62.90;;;;;;5024946;28;20448;-90
2022/05/15 12:18:32;;;;;;;4.70;3.17;;;25.50;63.70;;;;;;5018526;28;20457;-90
2022/05/15 12:21:00;;;;;;;5.80;3.27;;;25.60;64.20;;;;;;5018219;28;20438;-88
2022/05/15 12:23:35;;;;;;;5.50;2.97;;;25.70;63.20;;;;;;5019385;28;20584;-90
2022/05/15 12:26:20;;;;;;;6.50;3.10;;;25.70;62.60;;;;;;5037456;28;20438;-88
2022/05/15 12:28:55;;;;;;;4.00;2.60;;;25.80;62.10;;;;;;5027711;28;20451;-88
2022/05/15 12:31:31;;;;;;;4.40;2.70;;;25.70;60.80;;;;;;5025802;28;20430;-88
2022/05/15 12:34:12;;;;;;;6.80;2.93;;;25.60;61.30;;;;;;5031990;28;20470;-90
2022/05/15 12:36:41;;;;;;;4.47;2.87;;;25.80;62.90;;;;;;5030486;28;20450;-89
2022/05/15 12:39:14;;;;;;;5.47;2.93;;;25.90;61.50;;;;;;5033994;28;20518;-90
2022/05/15 12:41:46;;;;;;;6.17;3.27;;;26.00;61.00;;;;;;5033231;28;20478;-90
2022/05/15 12:44:13;;;;;;;12.40;2.90;;;26.20;60.40;;;;;;5032213;28;20866;-89
2022/05/15 12:46:43;;;;;;;5.07;3.00;;;26.20;58.30;;;;;;5032580;28;20434;-90
2022/05/15 12:49:10;;;;;;;6.60;2.93;;;26.20;58.00;;;;;;5032641;28;20447;-88
2022/05/15 12:51:40;;;;;;;5.00;2.70;;;26.30;58.20;;;;;;5037532;28;20451;-89
2022/05/15 12:54:24;;;;;;;4.63;2.80;;;26.20;59.30;;;;;;5035018;28;20470;-88
2022/05/15 12:57:03;;;;;;;6.80;3.00;;;26.10;59.50;;;;;;5032166;28;20435;-89
2022/05/15 12:59:35;;;;;;;5.20;3.17;;;26.10;58.90;;;;;;5032978;28;20454;-90
2022/05/15 13:02:23;;;;;;;7.83;3.67;;;26.00;59.50;;;;;;5032720;28;20419;-89
2022/05/15 13:04:53;;;;;;;9.10;2.70;;;26.10;59.80;;;;;;5033248;28;20485;-89
2022/05/15 13:07:26;;;;;;;5.40;2.60;;;26.10;59.00;;;;;;5031095;28;20465;-90
2022/05/15 13:10:05;;;;;;;5.20;3.33;;;26.10;59.60;;;;;;5032287;28;20443;-89
2022/05/15 13:12:40;;;;;;;5.10;3.10;;;26.30;59.20;;;;;;5032535;28;20454;-90
2022/05/15 13:15:10;;;;;;;7.70;3.00;;;26.30;58.90;;;;;;5033004;28;20445;-89
2022/05/15 13:17:38;;;;;;;4.20;2.87;;;26.40;59.10;;;;;;5034047;28;20475;-89
2022/05/15 13:20:09;;;;;;;5.93;2.60;;;26.30;58.60;;;;;;5038059;28;20415;-88
2022/05/15 13:22:37;;;;;;;6.90;3.40;;;26.40;58.50;;;;;;5039403;28;20513;-88
2022/05/15 13:25:09;;;;;;;5.40;2.70;;;26.40;58.30;;;;;;5033789;28;20466;-89
2022/05/15 13:27:43;;;;;;;5.03;3.07;;;26.50;58.40;;;;;;5033395;28;20474;-90